Time;durP1;ratioP1;P1;durP2;ratioP2;P2;SDS_P1;SDS_P2;PMS_P1;PMS_P2;Temp;Humidity;BMP_temperature;BMP_pressure;BME280_temperature;BME280_humidity;BME280_pressure;Samples;Min_cycle;Max_cycle;Signal;HPM_P1;HPM_P2
2022/01/26 00:07:16;;;;;;;;;;;3.80;99.90;;;;;;5087918;28;19928;-80
2022/01/26 00:09:43;;;;;;;;;;;3.90;99.90;;;;;;5089574;28;19925;-79
2022/01/26 00:12:09;;;;;;;;;;;3.80;99.90;;;;;;5072265;28;19997;-80
2022/01/26 00:14:37;;;;;;;;;;;3.80;99.90;;;;;;5074006;28;19924;-79
2022/01/26 00:17:02;;;;;;;;;;;3.90;99.90;;;;;;5066862;28;20281;-80
2022/01/26 00:19:44;;;;;;;;;;;3.80;99.90;;;;;;5071466;28;19929;-80
2022/01/26 00:22:09;;;;;;;;;;;3.80;99.90;;;;;;5089161;28;19974;-81
2022/01/26 00:24:54;;;;;;;;;;;3.80;99.90;;;;;;5073653;28;19982;-80
2022/01/26 00:27:35;;;;;;;;;;;3.80;99.90;;;;;;5108239;28;19973;-79
2022/01/26 00:31:59;;;;;;;;;;;3.80;99.90;;;;;;5108161;28;19923;-81
2022/01/26 00:33:07;;;;;;;;;;;3.80;99.90;;;;;;5077527;28;19931;-80
2022/01/26 00:38:39;;;;;;;;;;;3.80;99.90;;;;;;5093288;28;20284;-80
2022/01/26 00:41:08;;;;;;;;;;;3.80;99.90;;;;;;5040667;28;19928;-80
2022/01/26 00:43:35;;;;;;;;;;;3.80;99.90;;;;;;5088468;28;19964;-80
2022/01/26 00:46:02;;;;;;;;;;;3.80;99.90;;;;;;5073379;28;19932;-81
2022/01/26 00:48:31;;;;;;;;;;;3.80;99.90;;;;;;5099677;28;20270;-80
2022/01/26 00:50:59;;;;;;;;;;;3.80;99.90;;;;;;5055710;28;20328;-80
2022/01/26 00:53:32;;;;;;;;;;;3.80;99.90;;;;;;5037987;28;20028;-79
2022/01/26 00:55:57;;;;;;;;;;;3.80;99.90;;;;;;5070537;28;19925;-79
2022/01/26 00:58:23;;;;;;;;;;;3.80;99.90;;;;;;5059271;28;20012;-80
2022/01/26 01:00:49;;;;;;;;;;;3.80;99.90;;;;;;5085861;28;19926;-80
2022/01/26 01:03:14;;;;;;;;;;;3.80;99.90;;;;;;5075499;28;19925;-80
2022/01/26 01:06:26;;;;;;;;;;;3.80;99.90;;;;;;5063481;28;20281;-80
2022/01/26 01:08:29;;;;;;;;;;;3.80;99.90;;;;;;5066283;28;19928;-79
2022/01/26 01:10:56;;;;;;;;;;;3.80;99.90;;;;;;5078172;28;19939;-80
2022/01/26 01:13:30;;;;;;;;;;;3.80;99.90;;;;;;5061057;28;19928;-79
2022/01/26 01:15:55;;;;;;;;;;;3.80;99.90;;;;;;5056808;28;19986;-79
2022/01/26 01:18:28;;;;;;;;;;;3.80;99.90;;;;;;5082971;28;20190;-80
2022/01/26 01:28:52;;;;;;;;;;;3.90;99.90;;;;;;5057440;28;19928;-80
2022/01/26 01:32:11;;;;;;;;;;;4.00;99.90;;;;;;5091791;28;20644;-80
2022/01/26 01:34:03;;;;;;;;;;;4.00;99.90;;;;;;5050040;28;19928;-80
2022/01/26 01:36:29;;;;;;;;;;;3.80;99.90;;;;;;5077209;28;19924;-80
2022/01/26 01:38:55;;;;;;;;;;;3.90;99.90;;;;;;5077304;28;19935;-79
2022/01/26 01:41:21;;;;;;;;;;;3.90;99.90;;;;;;5077008;28;19977;-80
2022/01/26 01:43:46;;;;;;;;;;;3.90;99.90;;;;;;5060967;28;19924;-80
2022/01/26 01:46:12;;;;;;;;;;;3.90;99.90;;;;;;5077073;28;19931;-80
2022/01/26 01:48:38;;;;;;;;;;;3.90;99.90;;;;;;5077026;28;19932;-80
2022/01/26 01:51:08;;;;;;;;;;;3.90;99.90;;;;;;5068740;28;20024;-80
2022/01/26 01:53:40;;;;;;;;;;;3.90;99.90;;;;;;5060483;28;19971;-80
2022/01/26 01:56:07;;;;;;;;;;;3.90;99.90;;;;;;5077210;28;19935;-80
2022/01/26 01:58:33;;;;;;;;;;;3.90;99.90;;;;;;5077250;28;20032;-80
2022/01/26 02:00:59;;;;;;;;;;;4.00;99.90;;;;;;5053193;28;19963;-80
2022/01/26 02:03:25;;;;;;;;;;;4.00;99.90;;;;;;5076896;28;19935;-80
2022/01/26 02:05:51;;;;;;;;;;;4.00;99.90;;;;;;5094091;28;19924;-80
2022/01/26 02:08:16;;;;;;;;;;;4.00;99.90;;;;;;5093364;28;19946;-80
2022/01/26 02:10:42;;;;;;;;;;;4.00;99.90;;;;;;5091888;28;20368;-80
2022/01/26 02:13:21;;;;;;;;;;;4.00;99.90;;;;;;5108542;28;20380;-80
2022/01/26 02:21:16;;;;;;;;;;;4.00;99.90;;;;;;5074108;28;20378;-81
2022/01/26 02:51:39;;;;;;;;;;;3.70;99.90;;;;;;5090389;28;20435;-81
2022/01/26 02:54:42;;;;;;;;;;;3.70;99.90;;;;;;5039596;28;20377;-81
2022/01/26 03:00:01;;;;;;;;;;;3.70;99.90;;;;;;5075837;28;19924;-81
2022/01/26 03:02:42;;;;;;;;;;;3.70;99.90;;;;;;5074115;28;19966;-82
2022/01/26 03:05:11;;;;;;;;;;;3.60;99.90;;;;;;5073772;28;19934;-81
2022/01/26 03:07:44;;;;;;;;;;;3.70;99.90;;;;;;5092479;28;19924;-81
2022/01/26 03:10:25;;;;;;;;;;;3.60;99.90;;;;;;5060446;28;20352;-81
2022/01/26 03:15:44;;;;;;;;;;;3.60;99.90;;;;;;5074764;28;19924;-81
2022/01/26 03:20:51;;;;;;;;;;;3.60;99.90;;;;;;5075787;28;19979;-81
2022/01/26 03:28:58;;;;;;;;;;;3.60;99.90;;;;;;5109278;28;19928;-82
2022/01/26 03:36:29;;;;;;;;;;;3.60;99.90;;;;;;5092749;28;20102;-82
2022/01/26 03:39:02;;;;;;;;;;;3.60;99.90;;;;;;5075542;28;20400;-81
2022/01/26 03:41:37;;;;;;;;;;;3.60;99.90;;;;;;5042732;28;20385;-82
2022/01/26 03:44:03;;;;;;;;;;;3.60;99.90;;;;;;5059937;28;20022;-81
2022/01/26 03:46:29;;;;;;;;;;;3.50;99.90;;;;;;5057243;28;20393;-82
2022/01/26 03:48:55;;;;;;;;;;;3.50;99.90;;;;;;5074906;28;19928;-82
2022/01/26 03:51:21;;;;;;;;;;;3.50;99.90;;;;;;5088260;28;19931;-82
2022/01/26 03:53:46;;;;;;;;;;;3.50;99.90;;;;;;5071716;28;19929;-82
2022/01/26 03:56:12;;;;;;;;;;;3.50;99.90;;;;;;5071493;28;19925;-81
2022/01/26 03:58:37;;;;;;;;;;;3.50;99.90;;;;;;5054984;28;20246;-81
2022/01/26 04:01:03;;;;;;;;;;;3.50;99.90;;;;;;5105777;28;19929;-82
2022/01/26 04:03:28;;;;;;;;;;;3.40;99.90;;;;;;5054625;28;19928;-82
2022/01/26 04:05:54;;;;;;;;;;;3.60;99.90;;;;;;5038012;28;20010;-82
2022/01/26 04:08:25;;;;;;;;;;;3.40;99.90;;;;;;5056531;28;19925;-82
2022/01/26 04:11:06;;;;;;;;;;;3.40;99.90;;;;;;5068220;28;20374;-82
2022/01/26 04:13:31;;;;;;;;;;;3.50;99.90;;;;;;5087877;28;19932;-81
2022/01/26 04:15:57;;;;;;;;;;;3.50;99.90;;;;;;5054902;28;19924;-82
2022/01/26 04:18:29;;;;;;;;;;;3.50;99.90;;;;;;5069948;28;19948;-82
2022/01/26 04:20:58;;;;;;;;;;;3.50;99.90;;;;;;5071063;28;19924;-82
2022/01/26 04:23:34;;;;;;;;;;;3.50;99.90;;;;;;5054494;28;20411;-82
2022/01/26 04:25:59;;;;;;;;;;;3.50;99.90;;;;;;5071079;28;20030;-82
2022/01/26 04:28:32;;;;;;;;;;;3.50;99.90;;;;;;5070963;28;20424;-82
2022/01/26 04:30:57;;;;;;;;;;;3.50;99.90;;;;;;5070925;28;20280;-82
2022/01/26 04:33:23;;;;;;;;;;;3.50;99.90;;;;;;5054563;28;19928;-82
2022/01/26 04:35:48;;;;;;;;;;;3.50;99.90;;;;;;5067749;28;20325;-81
2022/01/26 04:38:27;;;;;;;;;;;3.50;99.90;;;;;;5058820;28;19931;-81
2022/01/26 04:43:35;;;;;;;;;;;3.50;99.90;;;;;;5075197;28;19974;-82
2022/01/26 04:46:01;;;;;;;;;;;3.50;99.90;;;;;;5058942;28;20007;-82
2022/01/26 04:48:26;;;;;;;;;;;3.50;99.90;;;;;;5041582;28;20372;-82
2022/01/26 04:50:52;;;;;;;;;;;3.50;99.90;;;;;;5091481;28;19970;-82
2022/01/26 04:53:18;;;;;;;;;;;3.50;99.90;;;;;;5074889;28;19947;-82
2022/01/26 04:55:43;;;;;;;;;;;3.50;99.90;;;;;;5074570;28;19932;-82
2022/01/26 04:58:09;;;;;;;;;;;3.50;99.90;;;;;;5091732;28;19932;-82
2022/01/26 05:00:34;;;;;;;;;;;3.50;99.90;;;;;;5058063;28;19928;-81
2022/01/26 05:03:00;;;;;;;;;;;3.50;99.90;;;;;;5089970;28;19925;-82
2022/01/26 05:05:26;;;;;;;;;;;3.50;99.90;;;;;;5038134;28;19925;-83
2022/01/26 05:07:51;;;;;;;;;;;3.50;99.90;;;;;;5070485;28;19925;-82
2022/01/26 05:10:17;;;;;;;;;;;3.50;99.90;;;;;;5058179;28;20384;-81
2022/01/26 05:12:43;;;;;;;;;;;3.50;99.90;;;;;;5057147;28;19932;-81
2022/01/26 05:15:09;;;;;;;;;;;3.60;99.90;;;;;;5091220;28;20019;-82
2022/01/26 05:17:35;;;;;;;;;;;3.50;99.90;;;;;;5074091;28;19935;-82
2022/01/26 05:20:01;;;;;;;;;;;3.50;99.90;;;;;;5074662;28;19932;-82
2022/01/26 05:22:29;;;;;;;;;;;3.50;99.90;;;;;;5050046;28;19924;-82
2022/01/26 05:24:54;;;;;;;;;;;3.60;99.90;;;;;;5038263;28;19924;-82
2022/01/26 05:27:20;;;;;;;;;;;3.60;99.90;;;;;;5091589;28;19924;-81
2022/01/26 05:29:46;;;;;;;;;;;3.60;99.90;;;;;;5057483;28;19978;-81
2022/01/26 05:32:11;;;;;;;;;;;3.60;99.90;;;;;;5069546;28;19929;-81
2022/01/26 05:34:37;;;;;;;;;;;3.60;99.90;;;;;;5082120;28;19925;-82
2022/01/26 05:37:03;;;;;;;;;;;3.60;99.90;;;;;;5087987;28;20293;-81
2022/01/26 05:39:28;;;;;;;;;;;3.60;99.90;;;;;;5071050;28;19933;-81
2022/01/26 05:41:54;;;;;;;;;;;3.70;99.90;;;;;;5091131;28;19924;-82
2022/01/26 05:44:20;;;;;;;;;;;3.70;99.90;;;;;;5057547;28;20003;-82
2022/01/26 05:46:48;;;;;;;;;;;3.70;99.90;;;;;;5056961;28;20361;-81
2022/01/26 05:49:16;;;;;;;;;;;3.70;99.90;;;;;;5088672;28;20003;-82
2022/01/26 05:51:45;;;;;;;;;;;3.70;99.90;;;;;;5073309;28;19924;-81
2022/01/26 05:54:11;;;;;;;;;;;3.70;99.90;;;;;;5074152;28;19924;-81
2022/01/26 05:56:37;;;;;;;;;;;3.70;99.90;;;;;;5107252;28;20339;-81
2022/01/26 05:59:03;;;;;;;;;;;3.70;99.90;;;;;;5073727;28;19931;-81
2022/01/26 06:01:29;;;;;;;;;;;3.70;99.90;;;;;;5072688;28;19932;-81
2022/01/26 06:03:54;;;;;;;;;;;3.70;99.90;;;;;;5056119;28;19973;-82
2022/01/26 06:06:20;;;;;;;;;;;3.70;99.90;;;;;;5072840;28;19924;-81
2022/01/26 06:08:46;;;;;;;;;;;3.70;99.90;;;;;;5056319;28;20399;-82
2022/01/26 06:11:11;;;;;;;;;;;3.70;99.90;;;;;;5072948;28;19932;-82
2022/01/26 06:13:37;;;;;;;;;;;3.70;99.90;;;;;;5072206;28;19971;-81
2022/01/26 06:16:03;;;;;;;;;;;3.90;99.90;;;;;;5086618;28;20289;-80
2022/01/26 06:18:28;;;;;;;;;;;3.90;99.90;;;;;;5073454;28;19932;-81
2022/01/26 06:20:55;;;;;;;;;;;3.90;99.90;;;;;;5056794;28;19928;-80
2022/01/26 06:23:24;;;;;;;;;;;4.00;99.90;;;;;;5056797;28;19931;-81
2022/01/26 06:25:51;;;;;;;;;;;4.00;99.90;;;;;;5071758;28;19925;-81
2022/01/26 06:28:17;;;;;;;;;;;4.00;99.90;;;;;;5072294;28;19932;-83
2022/01/26 06:30:46;;;;;;;;;;;4.00;99.90;;;;;;5071871;28;19939;-81
2022/01/26 06:33:12;;;;;;;;;;;4.00;99.90;;;;;;5033120;28;19964;-82
2022/01/26 06:35:38;;;;;;;;;;;4.00;99.90;;;;;;5073058;28;19978;-82
2022/01/26 06:38:03;;;;;;;;;;;4.00;99.90;;;;;;5073522;28;19982;-80
2022/01/26 06:40:29;;;;;;;;;;;4.00;99.90;;;;;;5073313;28;20288;-80
2022/01/26 06:43:02;;;;;;;;;;;4.00;99.90;;;;;;5072520;28;20014;-81
2022/01/26 06:45:31;;;;;;;;;;;4.00;99.90;;;;;;5055888;28;19947;-81
2022/01/26 06:50:41;;;;;;;;;;;4.00;99.90;;;;;;5083089;28;20063;-80
2022/01/26 06:53:07;;;;;;;;;;;4.10;99.90;;;;;;5092931;28;19971;-81
2022/01/26 06:55:33;;;;;;;;;;;4.00;99.90;;;;;;5076421;28;19924;-81
2022/01/26 06:57:59;;;;;;;;;;;4.00;99.90;;;;;;5059704;28;19924;-81
2022/01/26 07:00:25;;;;;;;;;;;4.10;99.90;;;;;;5110207;28;19931;-81
2022/01/26 07:02:54;;;;;;;;;;;4.10;99.90;;;;;;5075347;28;19931;-81
2022/01/26 07:05:19;;;;;;;;;;;4.00;99.90;;;;;;5076112;28;19924;-81
2022/01/26 07:07:45;;;;;;;;;;;4.00;99.90;;;;;;5075467;28;19936;-80
2022/01/26 07:10:10;;;;;;;;;;;4.00;99.90;;;;;;5076118;28;20380;-80
2022/01/26 07:12:36;;;;;;;;;;;4.00;99.90;;;;;;5076293;28;19924;-81
2022/01/26 07:23:06;;;;;;;;;;;4.00;99.90;;;;;;5056696;28;20364;-81
2022/01/26 07:25:32;;;;;;;;;;;4.00;99.90;;;;;;5056648;28;19964;-81
2022/01/26 07:27:59;;;;;;;;;;;4.00;99.90;;;;;;5074676;28;19998;-80
2022/01/26 07:30:25;;;;;;;;;;;4.00;99.90;;;;;;5075340;28;19924;-80
2022/01/26 07:32:50;;;;;;;;;;;4.00;99.90;;;;;;5039695;28;19947;-83
2022/01/26 07:35:16;;;;;;;;;;;4.00;99.90;;;;;;5058112;28;19924;-81
2022/01/26 07:37:44;;;;;;;;;;;4.10;99.90;;;;;;5075376;28;19931;-83
2022/01/26 07:40:10;;;;;;;;;;;4.00;99.90;;;;;;5058504;28;20003;-81
2022/01/26 07:42:36;;;;;;;;;;;4.00;99.90;;;;;;5075224;28;19928;-80
2022/01/26 07:45:04;;;;;;;;;;;4.00;99.90;;;;;;5058574;28;19924;-80
2022/01/26 07:47:31;;;;;;;;;;;4.00;99.90;;;;;;5092275;28;19931;-81
2022/01/26 07:50:00;;;;;;;;;;;4.00;99.90;;;;;;5045234;28;19924;-80
2022/01/26 07:52:28;;;;;;;;;;;4.10;99.90;;;;;;5048355;28;19924;-80
2022/01/26 07:54:54;;;;;;;;;;;4.00;99.90;;;;;;5055481;28;19925;-80
2022/01/26 07:57:21;;;;;;;;;;;4.10;99.90;;;;;;5057390;28;19928;-81
2022/01/26 07:59:46;;;;;;;;;;;4.10;99.90;;;;;;5069240;28;19932;-81
2022/01/26 08:02:12;;;;;;;;;;;4.10;99.90;;;;;;5047203;28;19923;-81
2022/01/26 08:04:38;;;;;;;;;;;4.10;99.90;;;;;;5074821;28;19975;-80
2022/01/26 08:07:03;;;;;;;;;;;4.10;99.90;;;;;;5055527;28;20054;-81
2022/01/26 08:09:29;;;;;;;;;;;4.10;99.90;;;;;;5091584;28;20357;-81
2022/01/26 08:11:55;;;;;;;;;;;4.10;99.90;;;;;;5051263;28;19932;-81
2022/01/26 08:14:20;;;;;;;;;;;4.10;99.90;;;;;;5093701;28;19924;-81
2022/01/26 08:16:46;;;;;;;;;;;4.20;99.90;;;;;;5039846;28;19925;-83
2022/01/26 08:19:12;;;;;;;;;;;4.20;99.90;;;;;;5074520;28;19939;-80
2022/01/26 08:21:38;;;;;;;;;;;4.20;99.90;;;;;;5053247;28;19935;-81
2022/01/26 08:24:12;;;;;;;;;;;4.30;99.90;;;;;;5072664;28;19924;-82
2022/01/26 08:26:41;;;;;;;;;;;4.30;99.90;;;;;;5057543;28;19924;-82
2022/01/26 08:29:18;;;;;;;;;;;4.30;99.90;;;;;;5071721;28;19928;-82
2022/01/26 08:31:44;;;;;;;;;;;4.30;99.90;;;;;;5056709;28;19967;-81
2022/01/26 08:34:10;;;;;;;;;;;4.40;99.90;;;;;;5056705;28;19928;-82
2022/01/26 08:36:36;;;;;;;;;;;4.30;99.90;;;;;;5090350;28;19928;-82
2022/01/26 08:39:01;;;;;;;;;;;4.30;99.90;;;;;;5081619;28;19931;-82
2022/01/26 08:41:28;;;;;;;;;;;4.40;99.90;;;;;;5054681;28;20011;-83
2022/01/26 08:43:54;;;;;;;;;;;4.30;99.90;;;;;;5070895;28;20007;-82
2022/01/26 08:46:19;;;;;;;;;;;4.30;99.90;;;;;;5072215;28;20342;-82
2022/01/26 08:48:45;;;;;;;;;;;4.30;99.90;;;;;;5073147;28;20379;-82
2022/01/26 08:51:10;;;;;;;;;;;4.30;99.90;;;;;;5055586;28;20253;-82
2022/01/26 08:53:36;;;;;;;;;;;4.20;99.90;;;;;;5069053;28;20010;-82
2022/01/26 08:56:02;;;;;;;;;;;4.30;99.90;;;;;;5061679;28;19924;-81
2022/01/26 08:58:27;;;;;;;;;;;4.30;99.90;;;;;;5066545;28;19931;-82
2022/01/26 09:00:54;;;;;;;;;;;4.30;99.90;;;;;;5071858;28;19985;-82
2022/01/26 09:03:20;;;;;;;;;;;4.30;99.90;;;;;;5054767;28;20356;-82
2022/01/26 09:05:46;;;;;;;;;;;4.30;99.90;;;;;;5073980;28;19928;-83
2022/01/26 09:08:12;;;;;;;;;;;4.30;99.90;;;;;;5038192;28;19924;-82
2022/01/26 09:10:39;;;;;;;;;;;4.30;99.90;;;;;;5043292;28;19980;-82
2022/01/26 09:13:05;;;;;;;;;;;4.30;99.90;;;;;;5057037;28;19924;-84
2022/01/26 09:15:31;;;;;;;;;;;4.30;99.90;;;;;;5090259;28;20277;-82
2022/01/26 09:17:59;;;;;;;;;;;4.30;99.90;;;;;;5056647;28;19924;-83
2022/01/26 09:20:25;;;;;;;;;;;4.30;99.90;;;;;;5069709;28;19924;-81
2022/01/26 09:22:50;;;;;;;;;;;4.30;99.90;;;;;;5059472;28;20265;-83
2022/01/26 09:25:16;;;;;;;;;;;4.30;99.90;;;;;;5076895;28;19935;-81
2022/01/26 09:27:42;;;;;;;;;;;4.40;99.90;;;;;;5091798;28;19924;-83
2022/01/26 09:30:08;;;;;;;;;;;4.50;99.90;;;;;;5058200;28;19928;-82
2022/01/26 09:32:34;;;;;;;;;;;4.40;99.90;;;;;;5077187;28;19960;-82
2022/01/26 09:34:59;;;;;;;;;;;4.40;99.90;;;;;;5060885;28;19924;-83
2022/01/26 09:37:25;;;;;;;;;;;4.40;99.90;;;;;;5077454;28;19939;-82
2022/01/26 09:39:50;;;;;;;;;;;4.40;99.90;;;;;;5060687;28;19931;-82
2022/01/26 09:42:16;;;;;;;;;;;4.30;99.90;;;;;;5060722;28;19924;-82
2022/01/26 09:44:42;;;;;;;;;;;4.40;99.90;;;;;;5077558;28;19931;-81
2022/01/26 09:47:08;;;;;;;;;;;4.50;99.90;;;;;;5077190;28;19928;-82
2022/01/26 09:49:35;;;;;;;;;;;4.50;99.90;;;;;;5110363;28;19931;-81
2022/01/26 09:52:08;;;;;;;;;;;4.50;99.90;;;;;;5043026;28;19947;-80
2022/01/26 09:54:33;;;;;;;;;;;4.50;99.90;;;;;;5077151;28;19932;-81
2022/01/26 09:57:04;;;;;;;;;;;4.50;99.90;;;;;;5098569;28;19928;-82
2022/01/26 09:59:30;;;;;;;;;;;4.50;99.90;;;;;;5054574;28;20263;-83
2022/01/26 10:01:57;;;;;;;;;;;4.50;99.90;;;;;;5073339;28;19928;-82
2022/01/26 10:04:27;;;;;;;;;;;4.50;99.90;;;;;;5076872;28;19924;-82
2022/01/26 10:07:00;;;;;;;;;;;4.50;99.90;;;;;;5076102;28;20391;-83
2022/01/26 10:09:41;;;;;;;;;;;4.50;99.90;;;;;;5059441;28;19968;-83
2022/01/26 10:17:41;;;;;;;;;;;4.50;99.90;;;;;;5094667;28;19924;-82
2022/01/26 10:20:09;;;;;;;;;;;4.60;99.90;;;;;;5073172;28;19924;-83
2022/01/26 10:22:35;;;;;;;;;;;4.60;99.90;;;;;;5056680;28;19978;-83
2022/01/26 10:25:02;;;;;;;;;;;4.60;99.90;;;;;;5063818;28;19928;-83
2022/01/26 10:27:38;;;;;;;;;;;4.60;99.90;;;;;;5098190;28;19995;-83
2022/01/26 10:30:05;;;;;;;;;;;4.60;99.90;;;;;;5039979;28;20030;-83
2022/01/26 10:32:35;;;;;;;;;;;4.60;99.90;;;;;;5040040;28;19932;-83
2022/01/26 10:35:01;;;;;;;;;;;4.60;99.90;;;;;;5024262;28;19925;-83
2022/01/26 10:37:27;;;;;;;;;;;4.60;99.90;;;;;;5093448;28;20023;-83
2022/01/26 10:39:56;;;;;;;;;;;4.70;99.90;;;;;;5092933;28;20031;-83
2022/01/26 10:42:24;;;;;;;;;;;4.80;99.90;;;;;;5043565;28;19927;-83
2022/01/26 10:45:02;;;;;;;;;;;4.70;99.90;;;;;;5110304;28;20014;-82
2022/01/26 10:47:33;;;;;;;;;;;4.70;99.90;;;;;;5108973;28;20045;-83
2022/01/26 10:50:29;;;;;;;;;;;4.70;99.90;;;;;;5076294;28;19935;-83
2022/01/26 10:52:56;;;;;;;;;;;4.80;99.90;;;;;;5063190;28;19963;-83
2022/01/26 10:55:22;;;;;;;;;;;4.80;99.90;;;;;;5059262;28;19978;-82
2022/01/26 10:57:48;;;;;;;;;;;4.80;99.90;;;;;;5092052;28;19956;-83
2022/01/26 11:00:13;;;;;;;;;;;4.90;99.90;;;;;;5055675;28;19983;-83
2022/01/26 11:02:41;;;;;;;;;;;4.80;99.90;;;;;;5075463;28;19924;-82
2022/01/26 11:05:07;;;;;;;;;;;4.80;99.90;;;;;;5075782;28;20257;-83
2022/01/26 11:07:35;;;;;;;;;;;4.80;99.90;;;;;;5059001;28;19953;-83
2022/01/26 11:10:02;;;;;;;;;;;4.80;99.90;;;;;;5092201;28;19935;-83
2022/01/26 11:12:29;;;;;;;;;;;4.90;99.90;;;;;;5058082;28;19979;-83
2022/01/26 11:15:04;;;;;;;;;;;4.80;99.90;;;;;;5074967;28;19977;-83
2022/01/26 11:17:35;;;;;;;;;;;4.90;99.90;;;;;;5074710;28;19931;-84
2022/01/26 11:20:13;;;;;;;;;;;4.90;99.90;;;;;;5109270;28;19943;-83
2022/01/26 11:22:47;;;;;;;;;;;4.90;99.90;;;;;;5059147;28;19928;-80
2022/01/26 11:25:12;;;;;;;;;;;5.00;99.90;;;;;;5075615;28;19975;-82
2022/01/26 11:27:39;;;;;;;;;;;4.90;99.90;;;;;;5089697;28;19967;-83
2022/01/26 11:30:15;;;;;;;;;;;5.00;99.90;;;;;;5065161;28;19925;-82
2022/01/26 11:32:48;;;;;;;;;;;5.10;99.90;;;;;;5047971;28;19928;-83
2022/01/26 11:35:14;;;;;;;;;;;5.10;99.90;;;;;;5092177;28;19920;-83
2022/01/26 11:37:45;;;;;;;;;;;5.10;99.90;;;;;;5074433;28;19980;-81
2022/01/26 11:46:05;;;;;;;;;;;5.20;99.90;;;;;;5108254;28;19931;-82
2022/01/26 11:48:30;;;;;;;;;;;5.30;99.90;;;;;;5106218;28;19924;-81
2022/01/26 11:50:57;;;;;;;;;;;5.30;99.90;;;;;;5037582;28;19931;-81
2022/01/26 11:53:24;;;;;;;;;;;5.30;99.90;;;;;;5087986;28;19932;-81
2022/01/26 11:55:52;;;;;;;;;;;5.40;99.90;;;;;;5074142;28;20026;-82
2022/01/26 11:58:27;;;;;;;;;;;5.50;99.90;;;;;;5069014;28;20436;-82
2022/01/26 12:01:11;;;;;;;;;;;5.50;99.90;;;;;;5073274;28;19928;-82
2022/01/26 12:03:44;;;;;;;;;;;5.50;99.90;;;;;;5067841;28;19928;-82
2022/01/26 12:06:21;;;;;;;;;;;5.60;99.90;;;;;;5058068;28;19997;-82
2022/01/26 12:08:47;;;;;;;;;;;5.60;99.90;;;;;;5072402;28;19928;-82
2022/01/26 12:11:14;;;;;;;;;;;5.70;99.90;;;;;;5065526;28;20495;-80
2022/01/26 12:13:41;;;;;;;;;;;5.80;99.90;;;;;;5070873;28;19973;-81
2022/01/26 12:16:19;;;;;;;;;;;5.60;99.90;;;;;;5101763;28;20380;-82
2022/01/26 12:18:57;;;;;;;;;;;5.70;99.90;;;;;;5068691;28;19924;-82
2022/01/26 12:35:19;;;;;;;;;;;6.00;99.90;;;;;;5106475;28;19924;-82
2022/01/26 12:37:56;;;;;;;;;;;6.00;99.90;;;;;;5107264;28;19970;-82
2022/01/26 12:43:14;;;;;;;;;;;6.10;99.90;;;;;;5105789;28;19924;-82
2022/01/26 12:45:40;;;;;;;;;;;6.10;99.90;;;;;;5057408;28;19931;-82
2022/01/26 12:48:09;;;;;;;;;;;6.10;99.90;;;;;;5074765;28;19928;-81
2022/01/26 12:50:36;;;;;;;;;;;6.10;99.90;;;;;;5108741;28;19931;-81
2022/01/26 12:53:02;;;;;;;;;;;6.20;99.90;;;;;;5070571;28;19935;-81
2022/01/26 12:55:30;;;;;;;;;;;6.20;99.90;;;;;;5086284;28;19929;-81
2022/01/26 12:57:56;;;;;;;;;;;6.20;99.90;;;;;;5074072;28;19924;-81
2022/01/26 13:00:24;;;;;;;;;;;6.20;99.90;;;;;;5058194;28;19931;-81
2022/01/26 13:02:50;;;;;;;;;;;6.30;99.90;;;;;;5075155;28;19929;-81
2022/01/26 13:05:21;;;;;;;;;;;6.30;99.90;;;;;;5074333;28;19990;-81
2022/01/26 13:07:57;;;;;;;;;;;6.30;99.90;;;;;;5074747;28;20367;-82
2022/01/26 13:10:23;;;;;;;;;;;6.30;99.90;;;;;;5063422;28;19928;-81
2022/01/26 13:12:49;;;;;;;;;;;6.30;99.90;;;;;;5091802;28;20323;-81
2022/01/26 13:15:25;;;;;;;;;;;6.40;99.90;;;;;;5089434;28;19939;-81
2022/01/26 13:18:04;;;;;;;;;;;6.40;99.90;;;;;;5057598;28;19999;-82
2022/01/26 13:26:00;;;;;;;;;;;6.50;99.90;;;;;;5073828;28;19924;-81
2022/01/26 13:36:32;;;;;;;;;;;6.40;99.90;;;;;;5074177;28;19924;-82
2022/01/26 13:47:07;;;;;;;;;;;6.40;99.90;;;;;;5071420;28;19928;-83
2022/01/26 13:57:27;;;;;;;;;;;6.40;99.90;;;;;;5074061;28;20337;-83
2022/01/26 13:59:55;;;;;;;;;;;6.40;99.90;;;;;;5071710;28;20023;-83
2022/01/26 14:02:20;;;;;;;;;;;6.40;99.90;;;;;;5073634;28;19924;-84
2022/01/26 14:04:46;;;;;;;;;;;6.40;99.90;;;;;;5073877;28;19932;-83
2022/01/26 14:07:12;;;;;;;;;;;6.40;99.90;;;;;;5074781;28;19927;-83
2022/01/26 14:09:38;;;;;;;;;;;6.40;99.90;;;;;;5072686;28;20254;-84
2022/01/26 14:12:05;;;;;;;;;;;6.30;99.90;;;;;;5073413;28;19929;-83
2022/01/26 14:14:37;;;;;;;;;;;6.40;99.90;;;;;;5073738;28;19925;-83
2022/01/26 14:17:13;;;;;;;;;;;6.40;99.90;;;;;;5073679;28;19932;-84
2022/01/26 14:22:36;;;;;;;;;;;6.40;99.90;;;;;;5073398;28;20343;-84
2022/01/26 14:25:26;;;;;;;;;;;6.40;99.90;;;;;;5088695;28;19932;-83
2022/01/26 14:27:56;;;;;;;;;;;6.40;99.90;;;;;;5073423;28;19925;-83
2022/01/26 14:30:43;;;;;;;;;;;6.50;99.90;;;;;;5056480;28;19928;-84
2022/01/26 14:54:19;;;;;;;;;;;6.40;99.90;;;;;;5110124;28;19927;-82
2022/01/26 15:40:06;;;;;;;;;;;6.20;99.90;;;;;;5109290;28;20069;-82
2022/01/26 15:48:43;;;;;;;;;;;6.20;99.90;;;;;;5109036;28;19924;-82
2022/01/26 15:57:16;;;;;;;;;;;6.10;99.90;;;;;;5105303;28;19924;-82
2022/01/26 16:53:46;;;;;;;;;;;6.20;99.90;;;;;;5073994;28;19928;-86
2022/01/26 17:37:48;;;;;;;;;;;6.20;99.90;;;;;;5059801;28;19986;-84
2022/01/26 18:15:34;;;;;;;;;;;6.10;99.90;;;;;;5067961;28;19925;-82
2022/01/26 18:25:48;;;;;;;;;;;6.20;99.90;;;;;;5036933;28;20373;-83
2022/01/26 18:26:28;;;;;;;;;;;6.20;99.90;;;;;;5052746;28;20438;-82
2022/01/26 18:50:39;;;;;;;;;;;6.20;99.90;;;;;;5056938;28;19928;-82
2022/01/26 18:53:07;;;;;;;;;;;6.20;99.90;;;;;;5072020;28;19978;-82
2022/01/26 18:55:33;;;;;;;;;;;6.30;99.90;;;;;;5055170;28;19925;-83
2022/01/26 18:57:58;;;;;;;;;;;6.30;99.90;;;;;;5053851;28;19986;-85
2022/01/26 19:00:24;;;;;;;;;;;6.20;99.90;;;;;;5057724;28;19924;-85
2022/01/26 19:02:49;;;;;;;;;;;6.30;99.90;;;;;;5068421;28;19931;-82
2022/01/26 19:05:16;;;;;;;;;;;6.40;99.90;;;;;;5036156;28;19929;-82
2022/01/26 19:07:42;;;;;;;;;;;6.30;99.90;;;;;;5087603;28;19932;-83
2022/01/26 19:10:08;;;;;;;;;;;6.30;99.90;;;;;;5086272;28;19928;-83
2022/01/26 19:12:36;;;;;;;;;;;6.30;99.90;;;;;;5069231;28;19932;-82
2022/01/26 19:15:06;;;;;;;;;;;6.30;99.90;;;;;;5068951;28;19929;-82
2022/01/26 19:17:38;;;;;;;;;;;6.30;99.90;;;;;;5056320;28;20070;-83
2022/01/26 19:25:04;;;;;;;;;;;6.40;99.90;;;;;;5072095;28;20032;-83
2022/01/26 19:27:36;;;;;;;;;;;6.40;99.90;;;;;;5073211;28;19924;-82
2022/01/26 19:43:38;;;;;;;;;;;6.40;99.90;;;;;;5072010;28;19936;-82
2022/01/26 19:46:13;;;;;;;;;;;6.40;99.90;;;;;;5055002;28;19929;-82
2022/01/26 19:51:24;;;;;;;;;;;6.40;99.90;;;;;;5058031;28;19964;-82
2022/01/26 19:53:49;;;;;;;;;;;6.50;99.90;;;;;;5070161;28;19968;-81
2022/01/26 19:56:15;;;;;;;;;;;6.40;99.90;;;;;;5071813;28;20323;-82
2022/01/26 19:58:41;;;;;;;;;;;6.50;99.90;;;;;;5071582;28;20050;-82
2022/01/26 20:01:06;;;;;;;;;;;6.50;99.90;;;;;;5054330;28;19926;-82
2022/01/26 20:03:34;;;;;;;;;;;6.40;99.90;;;;;;5071314;28;19924;-82
2022/01/26 20:06:02;;;;;;;;;;;6.50;99.90;;;;;;5069223;28;20373;-83
2022/01/26 20:11:38;;;;;;;;;;;6.50;99.90;;;;;;4993299;28;19980;-82
2022/01/26 20:14:06;;;;;;;;;;;6.50;99.90;;;;;;5046418;28;20381;-83
2022/01/26 20:16:33;;;;;;;;;;;6.50;99.90;;;;;;5088026;28;19997;-83
2022/01/26 20:18:59;;;;;;;;;;;6.50;99.90;;;;;;5054778;28;19962;-82
2022/01/26 20:21:24;;;;;;;;;;;6.50;99.90;;;;;;5053753;28;19924;-82
2022/01/26 20:23:50;;;;;;;;;;;6.50;99.90;;;;;;5054878;28;19924;-84
2022/01/26 20:26:16;;;;;;;;;;;6.60;99.90;;;;;;5044870;28;20337;-83
2022/01/26 20:28:43;;;;;;;;;;;6.50;99.90;;;;;;5088065;28;19924;-82
2022/01/26 20:31:17;;;;;;;;;;;6.50;99.90;;;;;;5069455;28;19936;-82
2022/01/26 20:33:43;;;;;;;;;;;6.60;99.90;;;;;;5054377;28;19928;-82
2022/01/26 20:36:09;;;;;;;;;;;6.60;99.90;;;;;;5070792;28;19997;-83
2022/01/26 20:38:35;;;;;;;;;;;6.60;99.90;;;;;;5071278;28;19931;-82
2022/01/26 20:41:00;;;;;;;;;;;6.50;99.90;;;;;;5054537;28;19925;-81
2022/01/26 20:43:26;;;;;;;;;;;6.50;99.90;;;;;;5071457;28;19937;-82
2022/01/26 20:45:51;;;;;;;;;;;6.50;99.90;;;;;;5088505;28;19924;-82
2022/01/26 20:48:17;;;;;;;;;;;6.60;99.90;;;;;;5071032;28;19975;-81
2022/01/26 20:50:43;;;;;;;;;;;6.60;99.90;;;;;;5071342;28;20378;-81
2022/01/26 20:53:09;;;;;;;;;;;6.50;99.90;;;;;;5106728;28;19928;-80
2022/01/26 20:55:34;;;;;;;;;;;6.50;99.90;;;;;;5096290;28;19924;-81
2022/01/26 20:58:00;;;;;;;;;;;6.50;99.90;;;;;;5093518;28;19924;-79
2022/01/26 21:00:26;;;;;;;;;;;6.50;99.90;;;;;;5074863;28;20280;-79
2022/01/26 21:02:53;;;;;;;;;;;6.60;99.90;;;;;;5074935;28;19971;-78
2022/01/26 21:05:21;;;;;;;;;;;6.60;99.90;;;;;;5074946;28;19932;-80
2022/01/26 21:07:47;;;;;;;;;;;6.60;99.90;;;;;;5057605;28;19924;-81
2022/01/26 21:10:12;;;;;;;;;;;6.60;99.90;;;;;;5074021;28;20396;-82
2022/01/26 21:12:39;;;;;;;;;;;6.50;99.90;;;;;;5062833;28;19929;-82
2022/01/26 21:15:05;;;;;;;;;;;6.60;99.90;;;;;;5087888;28;19974;-81
2022/01/26 21:17:31;;;;;;;;;;;6.60;99.90;;;;;;5071677;28;19931;-80
2022/01/26 21:19:56;;;;;;;;;;;6.60;99.90;;;;;;5092737;28;19925;-81